sensor_id;sensor_type;location;lat;lon;timestamp;P1;durP1;ratioP1;P2;durP2;ratioP2
60352;SDS011;46196;52.970;6.954;2023-06-22T00:00:56;38.53;;;20.58;;
60352;SDS011;46196;52.970;6.954;2023-06-22T00:03:23;40.80;;;21.38;;
60352;SDS011;46196;52.970;6.954;2023-06-22T00:05:49;38.47;;;21.25;;
60352;SDS011;46196;52.970;6.954;2023-06-22T00:08:16;38.83;;;21.10;;
60352;SDS011;46196;52.970;6.954;2023-06-22T00:10:43;39.53;;;21.10;;
60352;SDS011;46196;52.970;6.954;2023-06-22T00:13:09;40.63;;;22.13;;
60352;SDS011;46196;52.970;6.954;2023-06-22T00:15:36;38.15;;;21.67;;
60352;SDS011;46196;52.970;6.954;2023-06-22T00:18:04;38.10;;;21.98;;
60352;SDS011;46196;52.970;6.954;2023-06-22T00:20:34;49.20;;;24.88;;
60352;SDS011;46196;52.970;6.954;2023-06-22T00:23:02;42.85;;;22.92;;
60352;SDS011;46196;52.970;6.954;2023-06-22T00:25:38;39.92;;;21.65;;
60352;SDS011;46196;52.970;6.954;2023-06-22T01:20:09;60.53;;;29.90;;
60352;SDS011;46196;52.970;6.954;2023-06-22T01:22:54;57.70;;;28.45;;
60352;SDS011;46196;52.970;6.954;2023-06-22T01:28:29;56.08;;;29.58;;
60352;SDS011;46196;52.970;6.954;2023-06-22T01:31:06;56.75;;;29.77;;
60352;SDS011;46196;52.970;6.954;2023-06-22T01:33:35;57.42;;;30.55;;
60352;SDS011;46196;52.970;6.954;2023-06-22T01:36:04;61.65;;;31.75;;
60352;SDS011;46196;52.970;6.954;2023-06-22T01:38:30;61.58;;;31.23;;
60352;SDS011;46196;52.970;6.954;2023-06-22T01:40:57;64.82;;;32.97;;
60352;SDS011;46196;52.970;6.954;2023-06-22T01:43:25;55.78;;;29.85;;
60352;SDS011;46196;52.970;6.954;2023-06-22T01:45:52;58.92;;;30.85;;
60352;SDS011;46196;52.970;6.954;2023-06-22T01:48:21;59.92;;;31.70;;
60352;SDS011;46196;52.970;6.954;2023-06-22T01:50:48;66.50;;;31.70;;
60352;SDS011;46196;52.970;6.954;2023-06-22T01:53:14;67.00;;;33.22;;
60352;SDS011;46196;52.970;6.954;2023-06-22T01:55:39;65.63;;;33.15;;
60352;SDS011;46196;52.970;6.954;2023-06-22T01:58:05;64.00;;;32.42;;
60352;SDS011;46196;52.970;6.954;2023-06-22T02:00:36;62.20;;;31.20;;
60352;SDS011;46196;52.970;6.954;2023-06-22T02:05:43;66.40;;;31.65;;
60352;SDS011;46196;52.970;6.954;2023-06-22T02:08:32;61.08;;;31.60;;
60352;SDS011;46196;52.970;6.954;2023-06-22T02:11:05;67.50;;;32.78;;
60352;SDS011;46196;52.970;6.954;2023-06-22T02:13:33;64.90;;;31.92;;
60352;SDS011;46196;52.970;6.954;2023-06-22T02:15:59;69.30;;;32.92;;
60352;SDS011;46196;52.970;6.954;2023-06-22T02:18:25;71.05;;;33.20;;
60352;SDS011;46196;52.970;6.954;2023-06-22T02:20:51;69.85;;;34.63;;
60352;SDS011;46196;52.970;6.954;2023-06-22T02:23:17;67.85;;;32.58;;
60352;SDS011;46196;52.970;6.954;2023-06-22T02:25:43;68.32;;;32.42;;
60352;SDS011;46196;52.970;6.954;2023-06-22T02:28:09;65.47;;;31.88;;
60352;SDS011;46196;52.970;6.954;2023-06-22T02:30:35;77.28;;;35.83;;
60352;SDS011;46196;52.970;6.954;2023-06-22T02:33:00;72.32;;;34.13;;
60352;SDS011;46196;52.970;6.954;2023-06-22T02:35:29;77.25;;;35.65;;
60352;SDS011;46196;52.970;6.954;2023-06-22T02:37:57;76.50;;;34.40;;
60352;SDS011;46196;52.970;6.954;2023-06-22T02:40:24;70.03;;;34.85;;
60352;SDS011;46196;52.970;6.954;2023-06-22T02:42:50;73.10;;;33.65;;
60352;SDS011;46196;52.970;6.954;2023-06-22T02:45:16;69.18;;;35.22;;
60352;SDS011;46196;52.970;6.954;2023-06-22T02:47:41;69.68;;;34.55;;
60352;SDS011;46196;52.970;6.954;2023-06-22T02:52:53;64.65;;;31.98;;
60352;SDS011;46196;52.970;6.954;2023-06-22T02:55:19;65.85;;;33.00;;
60352;SDS011;46196;52.970;6.954;2023-06-22T02:57:44;68.75;;;32.33;;
60352;SDS011;46196;52.970;6.954;2023-06-22T03:00:12;66.38;;;32.95;;
60352;SDS011;46196;52.970;6.954;2023-06-22T03:02:46;64.68;;;31.50;;
60352;SDS011;46196;52.970;6.954;2023-06-22T03:05:12;71.55;;;33.50;;
60352;SDS011;46196;52.970;6.954;2023-06-22T03:07:39;65.75;;;33.00;;
60352;SDS011;46196;52.970;6.954;2023-06-22T03:10:09;70.18;;;34.08;;
60352;SDS011;46196;52.970;6.954;2023-06-22T03:12:37;79.43;;;35.53;;
60352;SDS011;46196;52.970;6.954;2023-06-22T03:15:06;75.30;;;35.17;;
60352;SDS011;46196;52.970;6.954;2023-06-22T03:17:33;77.18;;;37.97;;
60352;SDS011;46196;52.970;6.954;2023-06-22T03:20:00;73.95;;;34.55;;
60352;SDS011;46196;52.970;6.954;2023-06-22T03:22:27;76.75;;;34.85;;
60352;SDS011;46196;52.970;6.954;2023-06-22T03:24:52;66.95;;;32.97;;
60352;SDS011;46196;52.970;6.954;2023-06-22T03:27:18;77.53;;;36.50;;
60352;SDS011;46196;52.970;6.954;2023-06-22T03:29:43;75.07;;;35.70;;
60352;SDS011;46196;52.970;6.954;2023-06-22T03:32:09;81.18;;;38.50;;
60352;SDS011;46196;52.970;6.954;2023-06-22T03:34:35;80.43;;;36.42;;
60352;SDS011;46196;52.970;6.954;2023-06-22T03:37:01;79.97;;;35.70;;
60352;SDS011;46196;52.970;6.954;2023-06-22T03:39:28;75.47;;;37.65;;
60352;SDS011;46196;52.970;6.954;2023-06-22T03:41:53;88.40;;;38.67;;
60352;SDS011;46196;52.970;6.954;2023-06-22T03:44:19;82.63;;;39.15;;
60352;SDS011;46196;52.970;6.954;2023-06-22T03:46:45;85.15;;;38.67;;
60352;SDS011;46196;52.970;6.954;2023-06-22T03:49:10;82.40;;;37.75;;
60352;SDS011;46196;52.970;6.954;2023-06-22T03:51:36;74.25;;;35.20;;
60352;SDS011;46196;52.970;6.954;2023-06-22T03:54:01;79.88;;;38.75;;
60352;SDS011;46196;52.970;6.954;2023-06-22T03:56:27;86.80;;;40.33;;
60352;SDS011;46196;52.970;6.954;2023-06-22T03:58:53;93.80;;;42.38;;
60352;SDS011;46196;52.970;6.954;2023-06-22T04:01:18;84.63;;;39.83;;
60352;SDS011;46196;52.970;6.954;2023-06-22T04:03:44;90.88;;;40.13;;
60352;SDS011;46196;52.970;6.954;2023-06-22T04:06:13;90.53;;;42.73;;
60352;SDS011;46196;52.970;6.954;2023-06-22T04:08:38;94.22;;;40.47;;
60352;SDS011;46196;52.970;6.954;2023-06-22T04:11:04;92.88;;;42.00;;
60352;SDS011;46196;52.970;6.954;2023-06-22T04:13:30;99.25;;;41.55;;
60352;SDS011;46196;52.970;6.954;2023-06-22T04:15:55;93.65;;;42.85;;
60352;SDS011;46196;52.970;6.954;2023-06-22T04:21:04;89.97;;;43.88;;
60352;SDS011;46196;52.970;6.954;2023-06-22T04:23:30;86.80;;;41.95;;
60352;SDS011;46196;52.970;6.954;2023-06-22T04:25:56;88.75;;;40.95;;
60352;SDS011;46196;52.970;6.954;2023-06-22T04:28:21;91.32;;;41.95;;
60352;SDS011;46196;52.970;6.954;2023-06-22T04:30:47;87.65;;;41.63;;
60352;SDS011;46196;52.970;6.954;2023-06-22T04:33:13;86.20;;;39.78;;
60352;SDS011;46196;52.970;6.954;2023-06-22T04:35:39;74.57;;;36.72;;
60352;SDS011;46196;52.970;6.954;2023-06-22T04:38:08;85.65;;;39.97;;
60352;SDS011;46196;52.970;6.954;2023-06-22T04:40:34;76.80;;;37.25;;
60352;SDS011;46196;52.970;6.954;2023-06-22T04:43:00;71.57;;;35.90;;
60352;SDS011;46196;52.970;6.954;2023-06-22T04:45:27;77.95;;;35.88;;
60352;SDS011;46196;52.970;6.954;2023-06-22T04:50:22;71.20;;;33.10;;
60352;SDS011;46196;52.970;6.954;2023-06-22T04:52:48;65.00;;;31.73;;
60352;SDS011;46196;52.970;6.954;2023-06-22T04:55:14;68.93;;;33.05;;
60352;SDS011;46196;52.970;6.954;2023-06-22T04:57:47;60.33;;;30.63;;
60352;SDS011;46196;52.970;6.954;2023-06-22T05:00:23;66.65;;;32.30;;
60352;SDS011;46196;52.970;6.954;2023-06-22T05:02:48;63.78;;;31.48;;
60352;SDS011;46196;52.970;6.954;2023-06-22T05:05:14;63.45;;;31.35;;
60352;SDS011;46196;52.970;6.954;2023-06-22T05:07:44;67.18;;;32.95;;
60352;SDS011;46196;52.970;6.954;2023-06-22T05:10:13;66.00;;;31.63;;
60352;SDS011;46196;52.970;6.954;2023-06-22T05:12:39;58.85;;;29.77;;
60352;SDS011;46196;52.970;6.954;2023-06-22T05:15:06;54.70;;;28.45;;
60352;SDS011;46196;52.970;6.954;2023-06-22T05:17:33;59.78;;;30.48;;
60352;SDS011;46196;52.970;6.954;2023-06-22T05:19:59;60.50;;;29.67;;
60352;SDS011;46196;52.970;6.954;2023-06-22T05:22:24;61.35;;;29.38;;
60352;SDS011;46196;52.970;6.954;2023-06-22T05:24:50;58.08;;;29.27;;
60352;SDS011;46196;52.970;6.954;2023-06-22T05:27:16;60.20;;;31.27;;
60352;SDS011;46196;52.970;6.954;2023-06-22T05:29:41;56.33;;;28.05;;
60352;SDS011;46196;52.970;6.954;2023-06-22T05:32:07;56.92;;;29.85;;
60352;SDS011;46196;52.970;6.954;2023-06-22T05:34:33;58.85;;;29.30;;
60352;SDS011;46196;52.970;6.954;2023-06-22T05:36:59;57.30;;;29.27;;
60352;SDS011;46196;52.970;6.954;2023-06-22T05:39:25;55.33;;;28.25;;
60352;SDS011;46196;52.970;6.954;2023-06-22T05:41:51;53.05;;;26.80;;
60352;SDS011;46196;52.970;6.954;2023-06-22T05:44:17;53.80;;;27.95;;
60352;SDS011;46196;52.970;6.954;2023-06-22T05:46:43;49.13;;;26.23;;
60352;SDS011;46196;52.970;6.954;2023-06-22T05:49:09;43.10;;;24.55;;
60352;SDS011;46196;52.970;6.954;2023-06-22T05:51:36;51.42;;;25.55;;
60352;SDS011;46196;52.970;6.954;2023-06-22T05:54:02;40.15;;;22.33;;
60352;SDS011;46196;52.970;6.954;2023-06-22T05:56:28;45.38;;;24.65;;
60352;SDS011;46196;52.970;6.954;2023-06-22T05:58:53;39.75;;;22.65;;
60352;SDS011;46196;52.970;6.954;2023-06-22T06:01:19;38.72;;;22.23;;
60352;SDS011;46196;52.970;6.954;2023-06-22T06:03:45;39.50;;;21.88;;
60352;SDS011;46196;52.970;6.954;2023-06-22T06:06:11;37.42;;;20.88;;
60352;SDS011;46196;52.970;6.954;2023-06-22T06:08:37;41.55;;;21.10;;
60352;SDS011;46196;52.970;6.954;2023-06-22T06:11:04;34.97;;;20.92;;
60352;SDS011;46196;52.970;6.954;2023-06-22T06:13:29;36.22;;;20.70;;
60352;SDS011;46196;52.970;6.954;2023-06-22T06:15:56;35.00;;;19.92;;
60352;SDS011;46196;52.970;6.954;2023-06-22T06:18:22;33.70;;;19.13;;
60352;SDS011;46196;52.970;6.954;2023-06-22T06:20:48;30.13;;;19.08;;
60352;SDS011;46196;52.970;6.954;2023-06-22T06:23:13;32.30;;;19.15;;
60352;SDS011;46196;52.970;6.954;2023-06-22T06:25:39;30.25;;;18.48;;
60352;SDS011;46196;52.970;6.954;2023-06-22T06:28:05;32.78;;;19.13;;
60352;SDS011;46196;52.970;6.954;2023-06-22T06:30:31;29.35;;;17.35;;
60352;SDS011;46196;52.970;6.954;2023-06-22T06:32:56;25.92;;;15.77;;
60352;SDS011;46196;52.970;6.954;2023-06-22T06:35:22;27.40;;;16.77;;
60352;SDS011;46196;52.970;6.954;2023-06-22T06:37:48;25.30;;;15.68;;
60352;SDS011;46196;52.970;6.954;2023-06-22T06:40:15;23.73;;;15.35;;
60352;SDS011;46196;52.970;6.954;2023-06-22T06:42:42;25.55;;;14.60;;
60352;SDS011;46196;52.970;6.954;2023-06-22T06:45:17;23.60;;;14.23;;
60352;SDS011;46196;52.970;6.954;2023-06-22T06:47:44;24.70;;;14.77;;
60352;SDS011;46196;52.970;6.954;2023-06-22T06:50:10;20.20;;;13.27;;
60352;SDS011;46196;52.970;6.954;2023-06-22T06:52:36;21.40;;;13.93;;
60352;SDS011;46196;52.970;6.954;2023-06-22T06:55:02;23.15;;;13.63;;
60352;SDS011;46196;52.970;6.954;2023-06-22T06:57:33;22.33;;;13.82;;
60352;SDS011;46196;52.970;6.954;2023-06-22T06:59:59;21.23;;;13.60;;
60352;SDS011;46196;52.970;6.954;2023-06-22T07:02:25;20.35;;;12.95;;
60352;SDS011;46196;52.970;6.954;2023-06-22T07:04:54;24.80;;;13.90;;
60352;SDS011;46196;52.970;6.954;2023-06-22T07:07:23;25.40;;;13.05;;
60352;SDS011;46196;52.970;6.954;2023-06-22T07:09:49;19.10;;;12.48;;
60352;SDS011;46196;52.970;6.954;2023-06-22T07:12:15;21.38;;;13.30;;
60352;SDS011;46196;52.970;6.954;2023-06-22T07:14:40;18.67;;;12.05;;
60352;SDS011;46196;52.970;6.954;2023-06-22T07:17:06;17.85;;;11.93;;
60352;SDS011;46196;52.970;6.954;2023-06-22T07:19:32;18.10;;;12.55;;
60352;SDS011;46196;52.970;6.954;2023-06-22T07:21:58;16.38;;;10.65;;
60352;SDS011;46196;52.970;6.954;2023-06-22T07:24:24;18.20;;;12.35;;
60352;SDS011;46196;52.970;6.954;2023-06-22T07:26:50;18.05;;;11.98;;
60352;SDS011;46196;52.970;6.954;2023-06-22T07:29:19;14.90;;;10.45;;
60352;SDS011;46196;52.970;6.954;2023-06-22T07:31:46;19.45;;;11.93;;
60352;SDS011;46196;52.970;6.954;2023-06-22T07:34:12;17.38;;;11.43;;
60352;SDS011;46196;52.970;6.954;2023-06-22T07:36:38;14.80;;;9.40;;
60352;SDS011;46196;52.970;6.954;2023-06-22T07:39:04;15.10;;;9.15;;
60352;SDS011;46196;52.970;6.954;2023-06-22T07:41:30;12.50;;;9.15;;
60352;SDS011;46196;52.970;6.954;2023-06-22T07:43:56;11.90;;;8.80;;
60352;SDS011;46196;52.970;6.954;2023-06-22T07:46:22;15.00;;;9.55;;
60352;SDS011;46196;52.970;6.954;2023-06-22T07:48:48;12.32;;;9.07;;
60352;SDS011;46196;52.970;6.954;2023-06-22T07:51:13;11.85;;;8.63;;
60352;SDS011;46196;52.970;6.954;2023-06-22T07:53:40;11.55;;;8.93;;
60352;SDS011;46196;52.970;6.954;2023-06-22T07:56:07;13.05;;;8.57;;
60352;SDS011;46196;52.970;6.954;2023-06-22T07:58:35;11.88;;;8.52;;
60352;SDS011;46196;52.970;6.954;2023-06-22T08:01:01;12.35;;;8.80;;
60352;SDS011;46196;52.970;6.954;2023-06-22T08:03:27;11.85;;;8.70;;
60352;SDS011;46196;52.970;6.954;2023-06-22T08:05:53;11.05;;;8.15;;
60352;SDS011;46196;52.970;6.954;2023-06-22T08:08:18;11.13;;;8.23;;
60352;SDS011;46196;52.970;6.954;2023-06-22T08:10:44;12.00;;;8.85;;
60352;SDS011;46196;52.970;6.954;2023-06-22T08:13:09;15.40;;;8.88;;
60352;SDS011;46196;52.970;6.954;2023-06-22T08:15:35;11.65;;;8.63;;
60352;SDS011;46196;52.970;6.954;2023-06-22T08:18:01;12.60;;;9.15;;
60352;SDS011;46196;52.970;6.954;2023-06-22T08:20:27;11.15;;;8.70;;
60352;SDS011;46196;52.970;6.954;2023-06-22T08:22:53;11.10;;;8.07;;
60352;SDS011;46196;52.970;6.954;2023-06-22T08:25:20;13.07;;;9.35;;
60352;SDS011;46196;52.970;6.954;2023-06-22T08:27:46;11.18;;;8.02;;
60352;SDS011;46196;52.970;6.954;2023-06-22T08:30:13;15.20;;;9.30;;
60352;SDS011;46196;52.970;6.954;2023-06-22T08:32:40;12.93;;;8.30;;
60352;SDS011;46196;52.970;6.954;2023-06-22T08:35:06;13.88;;;7.78;;
60352;SDS011;46196;52.970;6.954;2023-06-22T08:37:33;14.50;;;8.30;;
60352;SDS011;46196;52.970;6.954;2023-06-22T08:40:00;12.82;;;7.50;;
60352;SDS011;46196;52.970;6.954;2023-06-22T08:42:30;9.45;;;7.22;;
60352;SDS011;46196;52.970;6.954;2023-06-22T08:44:56;12.55;;;7.50;;
60352;SDS011;46196;52.970;6.954;2023-06-22T08:47:22;10.27;;;7.47;;
60352;SDS011;46196;52.970;6.954;2023-06-22T08:49:48;30.58;;;8.98;;
60352;SDS011;46196;52.970;6.954;2023-06-22T08:52:14;13.85;;;8.70;;
60352;SDS011;46196;52.970;6.954;2023-06-22T08:54:39;12.88;;;8.30;;
60352;SDS011;46196;52.970;6.954;2023-06-22T08:57:05;12.10;;;7.55;;
60352;SDS011;46196;52.970;6.954;2023-06-22T08:59:31;15.77;;;8.43;;
60352;SDS011;46196;52.970;6.954;2023-06-22T09:01:57;13.15;;;8.32;;
60352;SDS011;46196;52.970;6.954;2023-06-22T09:04:23;11.20;;;8.05;;
60352;SDS011;46196;52.970;6.954;2023-06-22T09:06:49;10.63;;;8.50;;
60352;SDS011;46196;52.970;6.954;2023-06-22T09:09:17;11.43;;;8.30;;
60352;SDS011;46196;52.970;6.954;2023-06-22T09:11:43;10.75;;;7.78;;
60352;SDS011;46196;52.970;6.954;2023-06-22T09:14:10;9.38;;;7.38;;
60352;SDS011;46196;52.970;6.954;2023-06-22T09:16:36;10.23;;;7.57;;
60352;SDS011;46196;52.970;6.954;2023-06-22T09:19:02;9.48;;;7.82;;
60352;SDS011;46196;52.970;6.954;2023-06-22T09:21:27;11.82;;;9.85;;
60352;SDS011;46196;52.970;6.954;2023-06-22T09:23:54;12.93;;;9.50;;
60352;SDS011;46196;52.970;6.954;2023-06-22T09:26:19;10.23;;;7.80;;
60352;SDS011;46196;52.970;6.954;2023-06-22T09:28:46;11.60;;;7.70;;
60352;SDS011;46196;52.970;6.954;2023-06-22T09:31:12;10.27;;;8.35;;
60352;SDS011;46196;52.970;6.954;2023-06-22T09:33:39;10.90;;;7.95;;
60352;SDS011;46196;52.970;6.954;2023-06-22T09:36:06;11.50;;;9.00;;
60352;SDS011;46196;52.970;6.954;2023-06-22T09:38:37;11.27;;;8.32;;
60352;SDS011;46196;52.970;6.954;2023-06-22T09:41:03;11.82;;;7.43;;
60352;SDS011;46196;52.970;6.954;2023-06-22T09:43:31;10.10;;;8.20;;
60352;SDS011;46196;52.970;6.954;2023-06-22T09:45:57;11.23;;;8.60;;
60352;SDS011;46196;52.970;6.954;2023-06-22T09:48:23;12.00;;;7.47;;
60352;SDS011;46196;52.970;6.954;2023-06-22T09:50:49;12.27;;;8.52;;
60352;SDS011;46196;52.970;6.954;2023-06-22T09:53:14;11.38;;;8.38;;
60352;SDS011;46196;52.970;6.954;2023-06-22T09:55:40;11.95;;;8.95;;
60352;SDS011;46196;52.970;6.954;2023-06-22T09:58:06;11.82;;;8.75;;
60352;SDS011;46196;52.970;6.954;2023-06-22T10:00:31;11.90;;;8.65;;
60352;SDS011;46196;52.970;6.954;2023-06-22T10:02:57;12.35;;;8.13;;
60352;SDS011;46196;52.970;6.954;2023-06-22T10:05:23;10.85;;;8.27;;
60352;SDS011;46196;52.970;6.954;2023-06-22T10:07:50;9.80;;;6.93;;
60352;SDS011;46196;52.970;6.954;2023-06-22T10:10:16;12.98;;;8.32;;
60352;SDS011;46196;52.970;6.954;2023-06-22T10:12:42;11.82;;;8.25;;
60352;SDS011;46196;52.970;6.954;2023-06-22T10:15:12;10.60;;;7.72;;
60352;SDS011;46196;52.970;6.954;2023-06-22T10:17:38;11.70;;;8.10;;
60352;SDS011;46196;52.970;6.954;2023-06-22T10:20:05;11.35;;;8.20;;
60352;SDS011;46196;52.970;6.954;2023-06-22T10:22:41;11.77;;;7.95;;
60352;SDS011;46196;52.970;6.954;2023-06-22T10:25:08;10.65;;;7.70;;
60352;SDS011;46196;52.970;6.954;2023-06-22T10:27:34;12.73;;;9.75;;
60352;SDS011;46196;52.970;6.954;2023-06-22T10:30:00;11.85;;;8.50;;
60352;SDS011;46196;52.970;6.954;2023-06-22T10:32:26;11.82;;;8.25;;
60352;SDS011;46196;52.970;6.954;2023-06-22T10:34:53;12.27;;;8.68;;
60352;SDS011;46196;52.970;6.954;2023-06-22T10:37:19;11.15;;;7.72;;
60352;SDS011;46196;52.970;6.954;2023-06-22T10:39:45;15.05;;;7.40;;
60352;SDS011;46196;52.970;6.954;2023-06-22T10:42:11;8.45;;;6.68;;
60352;SDS011;46196;52.970;6.954;2023-06-22T10:44:37;11.40;;;8.20;;
60352;SDS011;46196;52.970;6.954;2023-06-22T10:47:05;10.50;;;8.50;;
60352;SDS011;46196;52.970;6.954;2023-06-22T10:49:31;11.55;;;9.45;;
60352;SDS011;46196;52.970;6.954;2023-06-22T10:51:57;13.18;;;8.77;;
60352;SDS011;46196;52.970;6.954;2023-06-22T10:54:23;11.23;;;8.10;;
60352;SDS011;46196;52.970;6.954;2023-06-22T10:56:48;11.23;;;7.95;;
60352;SDS011;46196;52.970;6.954;2023-06-22T10:59:14;11.27;;;8.25;;
60352;SDS011;46196;52.970;6.954;2023-06-22T11:01:40;10.93;;;8.18;;
60352;SDS011;46196;52.970;6.954;2023-06-22T11:04:05;11.55;;;8.05;;
60352;SDS011;46196;52.970;6.954;2023-06-22T11:06:31;13.25;;;7.05;;
60352;SDS011;46196;52.970;6.954;2023-06-22T11:08:57;11.38;;;7.85;;
60352;SDS011;46196;52.970;6.954;2023-06-22T11:11:23;11.60;;;8.48;;
60352;SDS011;46196;52.970;6.954;2023-06-22T11:13:50;11.13;;;8.90;;
60352;SDS011;46196;52.970;6.954;2023-06-22T11:16:16;12.80;;;9.65;;
60352;SDS011;46196;52.970;6.954;2023-06-22T11:18:41;12.43;;;9.07;;
60352;SDS011;46196;52.970;6.954;2023-06-22T11:21:07;13.02;;;7.97;;
60352;SDS011;46196;52.970;6.954;2023-06-22T11:23:33;12.63;;;8.93;;
60352;SDS011;46196;52.970;6.954;2023-06-22T11:25:58;13.50;;;9.07;;
60352;SDS011;46196;52.970;6.954;2023-06-22T11:28:24;10.30;;;8.32;;
60352;SDS011;46196;52.970;6.954;2023-06-22T11:30:49;9.70;;;7.72;;
60352;SDS011;46196;52.970;6.954;2023-06-22T11:33:15;10.38;;;8.02;;
60352;SDS011;46196;52.970;6.954;2023-06-22T11:35:41;12.27;;;8.50;;
60352;SDS011;46196;52.970;6.954;2023-06-22T11:38:06;11.02;;;8.60;;
60352;SDS011;46196;52.970;6.954;2023-06-22T11:40:32;12.80;;;8.02;;
60352;SDS011;46196;52.970;6.954;2023-06-22T11:42:58;11.45;;;7.97;;
60352;SDS011;46196;52.970;6.954;2023-06-22T11:45:23;10.93;;;7.63;;
60352;SDS011;46196;52.970;6.954;2023-06-22T11:47:49;9.63;;;6.82;;
60352;SDS011;46196;52.970;6.954;2023-06-22T11:50:15;9.55;;;6.95;;
60352;SDS011;46196;52.970;6.954;2023-06-22T11:52:40;9.43;;;6.45;;
60352;SDS011;46196;52.970;6.954;2023-06-22T11:55:06;8.00;;;6.35;;
60352;SDS011;46196;52.970;6.954;2023-06-22T11:57:33;10.75;;;7.25;;
60352;SDS011;46196;52.970;6.954;2023-06-22T12:00:00;12.10;;;7.57;;
60352;SDS011;46196;52.970;6.954;2023-06-22T12:02:26;9.43;;;7.03;;
60352;SDS011;46196;52.970;6.954;2023-06-22T12:04:52;12.95;;;7.05;;
60352;SDS011;46196;52.970;6.954;2023-06-22T12:07:20;9.55;;;6.28;;
60352;SDS011;46196;52.970;6.954;2023-06-22T12:09:46;9.52;;;6.45;;
60352;SDS011;46196;52.970;6.954;2023-06-22T12:12:11;11.48;;;7.10;;
60352;SDS011;46196;52.970;6.954;2023-06-22T12:14:37;10.80;;;6.70;;
60352;SDS011;46196;52.970;6.954;2023-06-22T12:17:03;10.18;;;7.43;;
60352;SDS011;46196;52.970;6.954;2023-06-22T12:19:28;8.00;;;5.82;;
60352;SDS011;46196;52.970;6.954;2023-06-22T12:21:54;8.85;;;6.55;;
60352;SDS011;46196;52.970;6.954;2023-06-22T12:24:20;9.80;;;5.90;;
60352;SDS011;46196;52.970;6.954;2023-06-22T12:26:45;8.00;;;5.75;;
60352;SDS011;46196;52.970;6.954;2023-06-22T12:29:11;7.43;;;5.53;;
60352;SDS011;46196;52.970;6.954;2023-06-22T12:31:36;7.68;;;5.70;;
60352;SDS011;46196;52.970;6.954;2023-06-22T12:34:04;9.23;;;5.72;;
60352;SDS011;46196;52.970;6.954;2023-06-22T12:36:30;8.50;;;6.25;;
60352;SDS011;46196;52.970;6.954;2023-06-22T12:38:55;8.35;;;5.93;;
60352;SDS011;46196;52.970;6.954;2023-06-22T12:41:21;7.97;;;6.20;;
60352;SDS011;46196;52.970;6.954;2023-06-22T12:43:47;8.82;;;5.90;;
60352;SDS011;46196;52.970;6.954;2023-06-22T12:46:12;8.13;;;6.10;;
60352;SDS011;46196;52.970;6.954;2023-06-22T12:48:38;9.25;;;5.90;;
60352;SDS011;46196;52.970;6.954;2023-06-22T12:51:07;8.57;;;6.55;;
60352;SDS011;46196;52.970;6.954;2023-06-22T12:53:34;12.48;;;6.13;;
60352;SDS011;46196;52.970;6.954;2023-06-22T12:56:00;8.32;;;5.70;;
60352;SDS011;46196;52.970;6.954;2023-06-22T12:58:25;8.73;;;5.82;;
60352;SDS011;46196;52.970;6.954;2023-06-22T13:00:51;8.20;;;5.78;;
60352;SDS011;46196;52.970;6.954;2023-06-22T13:03:16;9.05;;;5.47;;
60352;SDS011;46196;52.970;6.954;2023-06-22T13:05:42;6.88;;;5.38;;
60352;SDS011;46196;52.970;6.954;2023-06-22T13:08:08;8.95;;;6.00;;
60352;SDS011;46196;52.970;6.954;2023-06-22T13:10:33;7.55;;;5.72;;
60352;SDS011;46196;52.970;6.954;2023-06-22T13:12:59;9.85;;;6.07;;
60352;SDS011;46196;52.970;6.954;2023-06-22T13:15:28;8.80;;;5.15;;
60352;SDS011;46196;52.970;6.954;2023-06-22T13:17:54;7.30;;;5.50;;
60352;SDS011;46196;52.970;6.954;2023-06-22T13:20:20;8.85;;;5.63;;
60352;SDS011;46196;52.970;6.954;2023-06-22T13:22:46;8.32;;;6.32;;
60352;SDS011;46196;52.970;6.954;2023-06-22T13:25:12;9.45;;;6.03;;
60352;SDS011;46196;52.970;6.954;2023-06-22T13:27:38;9.32;;;5.57;;
60352;SDS011;46196;52.970;6.954;2023-06-22T13:30:08;9.10;;;5.85;;
60352;SDS011;46196;52.970;6.954;2023-06-22T13:32:34;8.63;;;5.60;;
60352;SDS011;46196;52.970;6.954;2023-06-22T13:35:00;11.95;;;5.65;;
60352;SDS011;46196;52.970;6.954;2023-06-22T13:37:26;10.40;;;5.30;;
60352;SDS011;46196;52.970;6.954;2023-06-22T13:39:52;7.95;;;5.38;;
60352;SDS011;46196;52.970;6.954;2023-06-22T13:42:17;7.70;;;5.68;;
60352;SDS011;46196;52.970;6.954;2023-06-22T13:44:43;9.93;;;5.82;;
60352;SDS011;46196;52.970;6.954;2023-06-22T13:47:09;7.90;;;5.65;;
60352;SDS011;46196;52.970;6.954;2023-06-22T13:49:34;8.02;;;5.18;;
60352;SDS011;46196;52.970;6.954;2023-06-22T13:52:00;7.95;;;5.30;;
60352;SDS011;46196;52.970;6.954;2023-06-22T13:54:28;8.87;;;5.63;;
60352;SDS011;46196;52.970;6.954;2023-06-22T13:56:54;7.20;;;5.53;;
60352;SDS011;46196;52.970;6.954;2023-06-22T13:59:19;8.93;;;5.63;;
60352;SDS011;46196;52.970;6.954;2023-06-22T14:01:46;8.93;;;5.13;;
60352;SDS011;46196;52.970;6.954;2023-06-22T14:04:11;6.63;;;5.30;;
60352;SDS011;46196;52.970;6.954;2023-06-22T14:06:37;8.52;;;5.50;;
60352;SDS011;46196;52.970;6.954;2023-06-22T14:09:03;8.73;;;5.55;;
60352;SDS011;46196;52.970;6.954;2023-06-22T14:11:29;8.23;;;5.68;;
60352;SDS011;46196;52.970;6.954;2023-06-22T14:13:54;7.40;;;5.60;;
60352;SDS011;46196;52.970;6.954;2023-06-22T14:16:20;8.93;;;6.00;;
60352;SDS011;46196;52.970;6.954;2023-06-22T14:18:46;10.68;;;5.38;;
60352;SDS011;46196;52.970;6.954;2023-06-22T14:21:11;7.25;;;5.65;;
60352;SDS011;46196;52.970;6.954;2023-06-22T14:23:37;8.82;;;6.40;;
60352;SDS011;46196;52.970;6.954;2023-06-22T14:26:03;9.73;;;5.85;;
60352;SDS011;46196;52.970;6.954;2023-06-22T14:28:28;9.52;;;6.85;;
60352;SDS011;46196;52.970;6.954;2023-06-22T14:30:54;8.38;;;6.95;;
60352;SDS011;46196;52.970;6.954;2023-06-22T14:33:19;12.68;;;6.85;;
60352;SDS011;46196;52.970;6.954;2023-06-22T14:35:45;11.18;;;7.28;;
60352;SDS011;46196;52.970;6.954;2023-06-22T14:38:11;11.25;;;7.93;;
60352;SDS011;46196;52.970;6.954;2023-06-22T14:40:36;11.27;;;7.90;;
60352;SDS011;46196;52.970;6.954;2023-06-22T14:43:02;12.23;;;8.25;;
60352;SDS011;46196;52.970;6.954;2023-06-22T14:45:28;11.00;;;8.30;;
60352;SDS011;46196;52.970;6.954;2023-06-22T14:47:53;11.45;;;7.88;;
60352;SDS011;46196;52.970;6.954;2023-06-22T14:50:19;13.95;;;8.68;;
60352;SDS011;46196;52.970;6.954;2023-06-22T14:52:45;15.38;;;8.45;;
60352;SDS011;46196;52.970;6.954;2023-06-22T14:55:10;13.13;;;8.18;;
60352;SDS011;46196;52.970;6.954;2023-06-22T14:57:36;13.35;;;8.80;;
60352;SDS011;46196;52.970;6.954;2023-06-22T15:00:02;14.13;;;9.18;;
60352;SDS011;46196;52.970;6.954;2023-06-22T15:02:28;14.02;;;9.57;;
60352;SDS011;46196;52.970;6.954;2023-06-22T15:04:54;15.95;;;9.20;;
60352;SDS011;46196;52.970;6.954;2023-06-22T15:07:20;12.88;;;9.75;;
60352;SDS011;46196;52.970;6.954;2023-06-22T15:09:46;15.27;;;9.68;;
60352;SDS011;46196;52.970;6.954;2023-06-22T15:12:11;15.18;;;10.10;;
60352;SDS011;46196;52.970;6.954;2023-06-22T15:14:40;12.45;;;9.48;;
60352;SDS011;46196;52.970;6.954;2023-06-22T15:17:06;14.32;;;9.15;;
60352;SDS011;46196;52.970;6.954;2023-06-22T15:19:36;16.05;;;9.20;;
60352;SDS011;46196;52.970;6.954;2023-06-22T15:22:06;17.33;;;9.02;;
60352;SDS011;46196;52.970;6.954;2023-06-22T15:24:33;14.55;;;8.50;;
60352;SDS011;46196;52.970;6.954;2023-06-22T15:26:59;14.40;;;8.90;;
60352;SDS011;46196;52.970;6.954;2023-06-22T15:29:25;12.27;;;8.98;;
60352;SDS011;46196;52.970;6.954;2023-06-22T15:31:51;12.90;;;8.30;;